sensor_id;sensor_type;location;lat;lon;timestamp;temperature;humidity
17452;DHT22;8843;48.838;9.324;2023-02-04T00:01:35;7.10;99.90
17452;DHT22;8843;48.838;9.324;2023-02-04T00:04:02;7.10;99.90
17452;DHT22;8843;48.838;9.324;2023-02-04T00:06:29;7.10;99.90
17452;DHT22;8843;48.838;9.324;2023-02-04T00:08:56;7.10;99.90
17452;DHT22;8843;48.838;9.324;2023-02-04T00:11:24;7.10;99.90
17452;DHT22;8843;48.838;9.324;2023-02-04T00:13:51;7.10;99.90
17452;DHT22;8843;48.838;9.324;2023-02-04T00:16:18;7.10;99.90
17452;DHT22;8843;48.838;9.324;2023-02-04T00:18:44;7.10;99.90
17452;DHT22;8843;48.838;9.324;2023-02-04T00:21:11;7.10;99.90
17452;DHT22;8843;48.838;9.324;2023-02-04T00:23:38;7.10;99.90
17452;DHT22;8843;48.838;9.324;2023-02-04T00:26:05;7.10;99.90
17452;DHT22;8843;48.838;9.324;2023-02-04T00:28:33;7.10;99.90
17452;DHT22;8843;48.838;9.324;2023-02-04T00:31:00;7.10;99.90
17452;DHT22;8843;48.838;9.324;2023-02-04T00:33:27;7.10;99.90
17452;DHT22;8843;48.838;9.324;2023-02-04T00:35:54;7.20;99.90
17452;DHT22;8843;48.838;9.324;2023-02-04T00:38:21;7.10;99.90
17452;DHT22;8843;48.838;9.324;2023-02-04T00:40:49;7.10;99.90
17452;DHT22;8843;48.838;9.324;2023-02-04T00:43:16;7.10;99.90
17452;DHT22;8843;48.838;9.324;2023-02-04T00:45:44;7.10;99.90
17452;DHT22;8843;48.838;9.324;2023-02-04T00:48:11;7.10;99.90
17452;DHT22;8843;48.838;9.324;2023-02-04T00:50:37;7.10;99.90
17452;DHT22;8843;48.838;9.324;2023-02-04T00:53:05;7.10;99.90
17452;DHT22;8843;48.838;9.324;2023-02-04T00:55:32;7.10;99.90
17452;DHT22;8843;48.838;9.324;2023-02-04T00:57:59;7.10;99.90
17452;DHT22;8843;48.838;9.324;2023-02-04T01:00:25;7.10;99.90
17452;DHT22;8843;48.838;9.324;2023-02-04T01:02:54;7.10;99.90
17452;DHT22;8843;48.838;9.324;2023-02-04T01:05:20;7.10;99.90
17452;DHT22;8843;48.838;9.324;2023-02-04T01:07:47;7.10;99.90
17452;DHT22;8843;48.838;9.324;2023-02-04T01:10:14;7.10;99.90
17452;DHT22;8843;48.838;9.324;2023-02-04T01:12:42;7.20;99.90
17452;DHT22;8843;48.838;9.324;2023-02-04T01:15:10;7.10;99.90
17452;DHT22;8843;48.838;9.324;2023-02-04T01:17:37;7.20;99.90
17452;DHT22;8843;48.838;9.324;2023-02-04T01:20:06;7.10;99.90
17452;DHT22;8843;48.838;9.324;2023-02-04T01:22:33;7.10;99.90
17452;DHT22;8843;48.838;9.324;2023-02-04T01:24:59;7.10;99.90
17452;DHT22;8843;48.838;9.324;2023-02-04T01:27:26;7.10;99.90
17452;DHT22;8843;48.838;9.324;2023-02-04T01:29:53;7.10;99.90
17452;DHT22;8843;48.838;9.324;2023-02-04T01:32:20;7.10;99.90
17452;DHT22;8843;48.838;9.324;2023-02-04T01:34:47;7.10;99.90
17452;DHT22;8843;48.838;9.324;2023-02-04T01:37:15;7.10;99.90
17452;DHT22;8843;48.838;9.324;2023-02-04T01:39:42;7.10;99.90
17452;DHT22;8843;48.838;9.324;2023-02-04T01:42:09;7.10;99.90
17452;DHT22;8843;48.838;9.324;2023-02-04T01:44:37;7.10;99.90
17452;DHT22;8843;48.838;9.324;2023-02-04T01:47:04;7.10;99.90
17452;DHT22;8843;48.838;9.324;2023-02-04T01:49:31;7.10;99.90
17452;DHT22;8843;48.838;9.324;2023-02-04T01:51:58;7.10;99.90
17452;DHT22;8843;48.838;9.324;2023-02-04T01:54:26;7.10;99.90
17452;DHT22;8843;48.838;9.324;2023-02-04T01:56:54;7.10;99.90
17452;DHT22;8843;48.838;9.324;2023-02-04T01:59:21;7.10;99.90
17452;DHT22;8843;48.838;9.324;2023-02-04T02:01:50;7.10;99.90
17452;DHT22;8843;48.838;9.324;2023-02-04T02:04:18;7.10;99.90
17452;DHT22;8843;48.838;9.324;2023-02-04T02:06:50;7.10;99.90
17452;DHT22;8843;48.838;9.324;2023-02-04T02:09:18;7.10;99.90
17452;DHT22;8843;48.838;9.324;2023-02-04T02:11:47;7.10;99.90
17452;DHT22;8843;48.838;9.324;2023-02-04T02:14:14;7.10;99.90
17452;DHT22;8843;48.838;9.324;2023-02-04T02:16:41;7.10;99.90
17452;DHT22;8843;48.838;9.324;2023-02-04T02:19:11;7.10;99.90
17452;DHT22;8843;48.838;9.324;2023-02-04T02:21:44;7.10;99.90
17452;DHT22;8843;48.838;9.324;2023-02-04T02:24:24;7.10;99.90
17452;DHT22;8843;48.838;9.324;2023-02-04T02:26:52;7.10;99.90
17452;DHT22;8843;48.838;9.324;2023-02-04T02:29:19;7.00;99.90
17452;DHT22;8843;48.838;9.324;2023-02-04T02:31:46;7.10;99.90
17452;DHT22;8843;48.838;9.324;2023-02-04T02:34:13;7.10;99.90
17452;DHT22;8843;48.838;9.324;2023-02-04T02:36:40;7.10;99.90
17452;DHT22;8843;48.838;9.324;2023-02-04T02:39:08;7.10;99.90
17452;DHT22;8843;48.838;9.324;2023-02-04T02:41:36;7.10;99.90
17452;DHT22;8843;48.838;9.324;2023-02-04T02:44:04;7.10;99.90
17452;DHT22;8843;48.838;9.324;2023-02-04T02:46:31;7.10;99.90
17452;DHT22;8843;48.838;9.324;2023-02-04T02:48:58;7.00;99.90
17452;DHT22;8843;48.838;9.324;2023-02-04T02:51:25;7.10;99.90
17452;DHT22;8843;48.838;9.324;2023-02-04T02:53:52;7.10;99.90
17452;DHT22;8843;48.838;9.324;2023-02-04T02:56:19;7.10;99.90
17452;DHT22;8843;48.838;9.324;2023-02-04T02:58:48;7.10;99.90
17452;DHT22;8843;48.838;9.324;2023-02-04T03:01:15;7.00;99.90
17452;DHT22;8843;48.838;9.324;2023-02-04T03:03:45;7.10;99.90
17452;DHT22;8843;48.838;9.324;2023-02-04T03:06:15;7.00;99.90
17452;DHT22;8843;48.838;9.324;2023-02-04T03:08:45;7.10;99.90
17452;DHT22;8843;48.838;9.324;2023-02-04T03:11:13;7.10;99.90
17452;DHT22;8843;48.838;9.324;2023-02-04T03:13:40;7.10;99.90
17452;DHT22;8843;48.838;9.324;2023-02-04T03:16:09;7.10;99.90
17452;DHT22;8843;48.838;9.324;2023-02-04T03:18:37;7.10;99.90
17452;DHT22;8843;48.838;9.324;2023-02-04T03:21:06;7.00;99.90
17452;DHT22;8843;48.838;9.324;2023-02-04T03:23:34;7.10;99.90
17452;DHT22;8843;48.838;9.324;2023-02-04T03:26:02;7.10;99.90
17452;DHT22;8843;48.838;9.324;2023-02-04T03:28:29;7.10;99.90
17452;DHT22;8843;48.838;9.324;2023-02-04T03:30:57;7.00;99.90
17452;DHT22;8843;48.838;9.324;2023-02-04T03:33:27;7.10;99.90
17452;DHT22;8843;48.838;9.324;2023-02-04T03:35:56;7.00;99.90
17452;DHT22;8843;48.838;9.324;2023-02-04T03:38:23;7.00;99.90
17452;DHT22;8843;48.838;9.324;2023-02-04T03:40:50;7.00;99.90
17452;DHT22;8843;48.838;9.324;2023-02-04T03:43:16;7.00;99.90
17452;DHT22;8843;48.838;9.324;2023-02-04T03:45:43;7.00;99.90
17452;DHT22;8843;48.838;9.324;2023-02-04T03:48:10;7.10;99.90
17452;DHT22;8843;48.838;9.324;2023-02-04T03:50:38;7.00;99.90
17452;DHT22;8843;48.838;9.324;2023-02-04T03:53:05;7.00;99.90
17452;DHT22;8843;48.838;9.324;2023-02-04T03:55:32;7.00;99.90
17452;DHT22;8843;48.838;9.324;2023-02-04T03:58:00;7.00;99.90
17452;DHT22;8843;48.838;9.324;2023-02-04T04:00:27;7.10;99.90
17452;DHT22;8843;48.838;9.324;2023-02-04T04:02:54;7.10;99.90
17452;DHT22;8843;48.838;9.324;2023-02-04T04:05:22;7.00;99.90
17452;DHT22;8843;48.838;9.324;2023-02-04T04:07:50;7.10;99.90
17452;DHT22;8843;48.838;9.324;2023-02-04T04:10:17;7.10;99.90
17452;DHT22;8843;48.838;9.324;2023-02-04T04:12:44;7.10;99.90
17452;DHT22;8843;48.838;9.324;2023-02-04T04:15:11;7.00;99.90
17452;DHT22;8843;48.838;9.324;2023-02-04T04:17:37;7.10;99.90
17452;DHT22;8843;48.838;9.324;2023-02-04T04:20:05;7.10;99.90
17452;DHT22;8843;48.838;9.324;2023-02-04T04:22:32;7.00;99.90
17452;DHT22;8843;48.838;9.324;2023-02-04T04:25:00;7.00;99.90
17452;DHT22;8843;48.838;9.324;2023-02-04T04:27:27;7.10;99.90
17452;DHT22;8843;48.838;9.324;2023-02-04T04:29:54;7.00;99.90
17452;DHT22;8843;48.838;9.324;2023-02-04T04:32:21;7.00;99.90
17452;DHT22;8843;48.838;9.324;2023-02-04T04:34:48;7.00;99.90
17452;DHT22;8843;48.838;9.324;2023-02-04T04:37:15;7.00;99.90
17452;DHT22;8843;48.838;9.324;2023-02-04T04:39:42;7.00;99.90
17452;DHT22;8843;48.838;9.324;2023-02-04T04:42:10;7.00;99.90
17452;DHT22;8843;48.838;9.324;2023-02-04T04:44:37;7.00;99.90
17452;DHT22;8843;48.838;9.324;2023-02-04T04:47:04;7.00;99.90
17452;DHT22;8843;48.838;9.324;2023-02-04T04:49:30;7.00;99.90
17452;DHT22;8843;48.838;9.324;2023-02-04T04:51:57;7.00;99.90
17452;DHT22;8843;48.838;9.324;2023-02-04T04:54:24;7.00;99.90
17452;DHT22;8843;48.838;9.324;2023-02-04T04:56:51;7.00;99.90
17452;DHT22;8843;48.838;9.324;2023-02-04T04:59:19;7.00;99.90
17452;DHT22;8843;48.838;9.324;2023-02-04T05:01:46;7.00;99.90
17452;DHT22;8843;48.838;9.324;2023-02-04T05:04:13;7.00;99.90
17452;DHT22;8843;48.838;9.324;2023-02-04T05:06:40;7.00;99.90
17452;DHT22;8843;48.838;9.324;2023-02-04T05:09:07;7.00;99.90
17452;DHT22;8843;48.838;9.324;2023-02-04T05:11:34;7.00;99.90
17452;DHT22;8843;48.838;9.324;2023-02-04T05:14:01;7.00;99.90
17452;DHT22;8843;48.838;9.324;2023-02-04T05:16:29;7.00;99.90
17452;DHT22;8843;48.838;9.324;2023-02-04T05:18:56;7.00;99.90
17452;DHT22;8843;48.838;9.324;2023-02-04T05:21:23;7.00;99.90
17452;DHT22;8843;48.838;9.324;2023-02-04T05:23:49;7.00;99.90
17452;DHT22;8843;48.838;9.324;2023-02-04T05:26:16;7.00;99.90
17452;DHT22;8843;48.838;9.324;2023-02-04T05:28:43;7.00;99.90
17452;DHT22;8843;48.838;9.324;2023-02-04T05:31:10;7.00;99.90
17452;DHT22;8843;48.838;9.324;2023-02-04T05:33:38;7.00;99.90
17452;DHT22;8843;48.838;9.324;2023-02-04T05:36:05;7.00;99.90
17452;DHT22;8843;48.838;9.324;2023-02-04T05:38:32;7.00;99.90
17452;DHT22;8843;48.838;9.324;2023-02-04T05:40:59;7.00;99.90
17452;DHT22;8843;48.838;9.324;2023-02-04T05:43:26;7.00;99.90
17452;DHT22;8843;48.838;9.324;2023-02-04T05:45:53;7.00;99.90
17452;DHT22;8843;48.838;9.324;2023-02-04T05:48:20;7.00;99.90
17452;DHT22;8843;48.838;9.324;2023-02-04T05:50:48;7.00;99.90
17452;DHT22;8843;48.838;9.324;2023-02-04T05:53:15;7.00;99.90
17452;DHT22;8843;48.838;9.324;2023-02-04T05:55:41;7.00;99.90
17452;DHT22;8843;48.838;9.324;2023-02-04T05:58:08;7.00;99.90
17452;DHT22;8843;48.838;9.324;2023-02-04T06:00:35;7.00;99.90
17452;DHT22;8843;48.838;9.324;2023-02-04T06:03:02;7.00;99.90
17452;DHT22;8843;48.838;9.324;2023-02-04T06:05:29;7.00;99.90
17452;DHT22;8843;48.838;9.324;2023-02-04T06:07:57;7.00;99.90
17452;DHT22;8843;48.838;9.324;2023-02-04T06:10:24;7.00;99.90
17452;DHT22;8843;48.838;9.324;2023-02-04T06:12:51;7.00;99.90
17452;DHT22;8843;48.838;9.324;2023-02-04T06:15:18;7.00;99.90
17452;DHT22;8843;48.838;9.324;2023-02-04T06:17:45;7.00;99.90
17452;DHT22;8843;48.838;9.324;2023-02-04T06:20:13;7.00;99.90
17452;DHT22;8843;48.838;9.324;2023-02-04T06:22:40;7.00;99.90
17452;DHT22;8843;48.838;9.324;2023-02-04T06:25:08;7.00;99.90
17452;DHT22;8843;48.838;9.324;2023-02-04T06:27:35;7.00;99.90
17452;DHT22;8843;48.838;9.324;2023-02-04T06:30:03;7.00;99.90
17452;DHT22;8843;48.838;9.324;2023-02-04T06:32:30;7.10;99.90
17452;DHT22;8843;48.838;9.324;2023-02-04T06:34:57;7.10;99.90
17452;DHT22;8843;48.838;9.324;2023-02-04T06:37:23;7.10;99.90
17452;DHT22;8843;48.838;9.324;2023-02-04T06:39:50;7.10;99.90
17452;DHT22;8843;48.838;9.324;2023-02-04T06:42:20;7.10;99.90
17452;DHT22;8843;48.838;9.324;2023-02-04T06:44:47;7.10;99.90
17452;DHT22;8843;48.838;9.324;2023-02-04T06:47:14;7.10;99.90
17452;DHT22;8843;48.838;9.324;2023-02-04T06:49:41;7.10;99.90
17452;DHT22;8843;48.838;9.324;2023-02-04T06:52:08;7.10;99.90
17452;DHT22;8843;48.838;9.324;2023-02-04T06:54:35;7.10;99.90
17452;DHT22;8843;48.838;9.324;2023-02-04T06:57:03;7.10;99.90
17452;DHT22;8843;48.838;9.324;2023-02-04T06:59:34;7.10;99.90
17452;DHT22;8843;48.838;9.324;2023-02-04T07:02:01;7.10;99.90
17452;DHT22;8843;48.838;9.324;2023-02-04T07:04:28;7.60;99.90
17452;DHT22;8843;48.838;9.324;2023-02-04T07:06:55;7.50;99.90
17452;DHT22;8843;48.838;9.324;2023-02-04T07:09:22;7.40;99.90
17452;DHT22;8843;48.838;9.324;2023-02-04T07:11:49;7.70;99.90
17452;DHT22;8843;48.838;9.324;2023-02-04T07:14:16;7.60;99.90
17452;DHT22;8843;48.838;9.324;2023-02-04T07:16:44;7.50;99.90
17452;DHT22;8843;48.838;9.324;2023-02-04T07:19:11;7.30;99.90
17452;DHT22;8843;48.838;9.324;2023-02-04T07:21:38;7.30;99.90
17452;DHT22;8843;48.838;9.324;2023-02-04T07:24:05;7.20;99.90
17452;DHT22;8843;48.838;9.324;2023-02-04T07:26:32;7.20;99.90
17452;DHT22;8843;48.838;9.324;2023-02-04T07:28:59;7.20;99.90
17452;DHT22;8843;48.838;9.324;2023-02-04T07:31:26;7.20;99.90
17452;DHT22;8843;48.838;9.324;2023-02-04T07:33:55;7.20;99.90
17452;DHT22;8843;48.838;9.324;2023-02-04T07:36:22;7.20;99.90
17452;DHT22;8843;48.838;9.324;2023-02-04T07:38:49;7.20;99.90
17452;DHT22;8843;48.838;9.324;2023-02-04T07:41:15;7.20;99.90
17452;DHT22;8843;48.838;9.324;2023-02-04T07:43:42;7.20;99.90
17452;DHT22;8843;48.838;9.324;2023-02-04T07:46:09;7.60;99.90
17452;DHT22;8843;48.838;9.324;2023-02-04T07:48:36;7.70;99.90
17452;DHT22;8843;48.838;9.324;2023-02-04T07:51:04;7.50;99.90
17452;DHT22;8843;48.838;9.324;2023-02-04T07:53:31;7.40;99.90
17452;DHT22;8843;48.838;9.324;2023-02-04T07:55:58;7.30;99.90
17452;DHT22;8843;48.838;9.324;2023-02-04T07:58:25;7.30;99.90
17452;DHT22;8843;48.838;9.324;2023-02-04T08:00:52;7.20;99.90
17452;DHT22;8843;48.838;9.324;2023-02-04T08:03:18;7.20;99.90
17452;DHT22;8843;48.838;9.324;2023-02-04T08:05:45;7.20;99.90
17452;DHT22;8843;48.838;9.324;2023-02-04T08:08:14;7.20;99.90
17452;DHT22;8843;48.838;9.324;2023-02-04T08:10:41;7.20;99.90
17452;DHT22;8843;48.838;9.324;2023-02-04T08:13:08;7.50;99.90
17452;DHT22;8843;48.838;9.324;2023-02-04T08:15:35;7.50;99.90
17452;DHT22;8843;48.838;9.324;2023-02-04T08:18:02;7.40;99.90
17452;DHT22;8843;48.838;9.324;2023-02-04T08:20:30;7.20;99.90
17452;DHT22;8843;48.838;9.324;2023-02-04T08:22:57;7.20;99.90
17452;DHT22;8843;48.838;9.324;2023-02-04T08:25:27;7.10;99.90
17452;DHT22;8843;48.838;9.324;2023-02-04T08:27:54;7.10;99.90
17452;DHT22;8843;48.838;9.324;2023-02-04T08:30:21;7.10;99.90
17452;DHT22;8843;48.838;9.324;2023-02-04T08:32:48;7.10;99.90
17452;DHT22;8843;48.838;9.324;2023-02-04T08:35:15;7.10;99.90
17452;DHT22;8843;48.838;9.324;2023-02-04T08:37:42;7.10;99.90
17452;DHT22;8843;48.838;9.324;2023-02-04T08:40:10;7.10;99.90
17452;DHT22;8843;48.838;9.324;2023-02-04T08:42:38;7.10;99.90
17452;DHT22;8843;48.838;9.324;2023-02-04T08:45:06;7.10;99.90
17452;DHT22;8843;48.838;9.324;2023-02-04T08:47:32;7.10;99.90
17452;DHT22;8843;48.838;9.324;2023-02-04T08:49:59;7.10;99.90
17452;DHT22;8843;48.838;9.324;2023-02-04T08:52:26;7.10;99.90
17452;DHT22;8843;48.838;9.324;2023-02-04T08:54:53;7.10;99.90
17452;DHT22;8843;48.838;9.324;2023-02-04T08:57:20;7.10;99.90
17452;DHT22;8843;48.838;9.324;2023-02-04T08:59:48;7.10;99.90
17452;DHT22;8843;48.838;9.324;2023-02-04T09:02:15;7.10;99.90
17452;DHT22;8843;48.838;9.324;2023-02-04T09:04:42;7.10;99.90
17452;DHT22;8843;48.838;9.324;2023-02-04T09:07:09;7.10;99.90
17452;DHT22;8843;48.838;9.324;2023-02-04T09:09:35;7.10;99.90
17452;DHT22;8843;48.838;9.324;2023-02-04T09:12:02;7.10;99.90
17452;DHT22;8843;48.838;9.324;2023-02-04T09:14:29;7.10;99.90
17452;DHT22;8843;48.838;9.324;2023-02-04T09:16:57;7.10;99.90
17452;DHT22;8843;48.838;9.324;2023-02-04T09:19:24;7.10;99.90
17452;DHT22;8843;48.838;9.324;2023-02-04T09:21:52;7.10;99.90
17452;DHT22;8843;48.838;9.324;2023-02-04T09:24:19;7.10;99.90
17452;DHT22;8843;48.838;9.324;2023-02-04T09:26:48;7.30;99.90
17452;DHT22;8843;48.838;9.324;2023-02-04T09:29:14;7.20;99.90
17452;DHT22;8843;48.838;9.324;2023-02-04T09:31:41;7.10;99.90
17452;DHT22;8843;48.838;9.324;2023-02-04T09:34:09;7.10;99.90
17452;DHT22;8843;48.838;9.324;2023-02-04T09:36:36;7.10;99.90
17452;DHT22;8843;48.838;9.324;2023-02-04T09:39:04;7.10;99.90
17452;DHT22;8843;48.838;9.324;2023-02-04T09:41:32;7.10;99.90
17452;DHT22;8843;48.838;9.324;2023-02-04T09:44:08;7.10;99.90
17452;DHT22;8843;48.838;9.324;2023-02-04T09:46:37;7.40;99.90
17452;DHT22;8843;48.838;9.324;2023-02-04T09:49:04;8.30;99.90
17452;DHT22;8843;48.838;9.324;2023-02-04T09:51:33;9.50;99.90
17452;DHT22;8843;48.838;9.324;2023-02-04T09:54:05;9.80;99.90
17452;DHT22;8843;48.838;9.324;2023-02-04T09:56:34;9.10;99.90
17452;DHT22;8843;48.838;9.324;2023-02-04T09:59:03;8.50;99.90
17452;DHT22;8843;48.838;9.324;2023-02-04T10:01:30;8.20;99.90
17452;DHT22;8843;48.838;9.324;2023-02-04T10:04:00;8.00;99.90
17452;DHT22;8843;48.838;9.324;2023-02-04T10:06:27;7.90;99.90
17452;DHT22;8843;48.838;9.324;2023-02-04T10:08:56;7.80;99.90
17452;DHT22;8843;48.838;9.324;2023-02-04T10:11:25;7.70;99.90
17452;DHT22;8843;48.838;9.324;2023-02-04T10:13:54;7.80;99.90
17452;DHT22;8843;48.838;9.324;2023-02-04T10:16:23;7.70;99.90
17452;DHT22;8843;48.838;9.324;2023-02-04T10:18:55;7.60;99.90
17452;DHT22;8843;48.838;9.324;2023-02-04T10:21:25;7.70;99.90
17452;DHT22;8843;48.838;9.324;2023-02-04T10:23:56;7.60;99.90
17452;DHT22;8843;48.838;9.324;2023-02-04T10:26:26;7.60;99.90
17452;DHT22;8843;48.838;9.324;2023-02-04T10:28:58;7.50;99.90
17452;DHT22;8843;48.838;9.324;2023-02-04T10:31:31;7.60;99.90
17452;DHT22;8843;48.838;9.324;2023-02-04T10:34:08;7.50;99.90
17452;DHT22;8843;48.838;9.324;2023-02-04T10:36:35;7.50;99.90
17452;DHT22;8843;48.838;9.324;2023-02-04T10:39:05;7.60;99.90
17452;DHT22;8843;48.838;9.324;2023-02-04T10:41:32;7.50;99.90
17452;DHT22;8843;48.838;9.324;2023-02-04T10:44:05;7.50;99.90
17452;DHT22;8843;48.838;9.324;2023-02-04T10:46:32;7.50;99.90
17452;DHT22;8843;48.838;9.324;2023-02-04T10:48:58;7.50;99.90
17452;DHT22;8843;48.838;9.324;2023-02-04T10:51:25;7.50;99.90
17452;DHT22;8843;48.838;9.324;2023-02-04T10:53:52;7.50;99.90
17452;DHT22;8843;48.838;9.324;2023-02-04T10:56:38;7.50;99.90
17452;DHT22;8843;48.838;9.324;2023-02-04T10:59:05;7.50;99.90
17452;DHT22;8843;48.838;9.324;2023-02-04T11:01:35;7.50;99.90
17452;DHT22;8843;48.838;9.324;2023-02-04T11:04:02;7.50;99.90
17452;DHT22;8843;48.838;9.324;2023-02-04T11:06:28;7.60;99.90
17452;DHT22;8843;48.838;9.324;2023-02-04T11:08:57;7.70;99.90
17452;DHT22;8843;48.838;9.324;2023-02-04T11:11:25;7.70;99.90
17452;DHT22;8843;48.838;9.324;2023-02-04T11:14:00;7.70;99.90
17452;DHT22;8843;48.838;9.324;2023-02-04T11:16:29;7.70;99.90
17452;DHT22;8843;48.838;9.324;2023-02-04T11:18:59;7.70;99.90
17452;DHT22;8843;48.838;9.324;2023-02-04T11:21:28;7.80;99.90
17452;DHT22;8843;48.838;9.324;2023-02-04T11:24:21;7.80;99.90
17452;DHT22;8843;48.838;9.324;2023-02-04T11:26:49;7.80;99.90
17452;DHT22;8843;48.838;9.324;2023-02-04T11:29:27;7.80;99.90
17452;DHT22;8843;48.838;9.324;2023-02-04T11:32:02;7.80;99.90
17452;DHT22;8843;48.838;9.324;2023-02-04T11:34:35;7.80;99.90
17452;DHT22;8843;48.838;9.324;2023-02-04T11:37:27;7.80;99.90
17452;DHT22;8843;48.838;9.324;2023-02-04T11:39:59;7.80;99.90
17452;DHT22;8843;48.838;9.324;2023-02-04T11:42:31;7.80;99.90
17452;DHT22;8843;48.838;9.324;2023-02-04T11:45:13;7.80;99.90
17452;DHT22;8843;48.838;9.324;2023-02-04T11:47:41;7.80;99.90
17452;DHT22;8843;48.838;9.324;2023-02-04T11:50:14;7.80;99.90
17452;DHT22;8843;48.838;9.324;2023-02-04T11:52:41;9.10;99.90
17452;DHT22;8843;48.838;9.324;2023-02-04T11:55:09;9.60;99.90
17452;DHT22;8843;48.838;9.324;2023-02-04T11:57:40;9.00;99.90
17452;DHT22;8843;48.838;9.324;2023-02-04T12:00:14;8.60;99.90
17452;DHT22;8843;48.838;9.324;2023-02-04T12:02:45;8.30;99.90
17452;DHT22;8843;48.838;9.324;2023-02-04T12:05:13;8.10;99.90
17452;DHT22;8843;48.838;9.324;2023-02-04T12:07:41;8.00;99.90
17452;DHT22;8843;48.838;9.324;2023-02-04T12:10:23;7.90;99.90
17452;DHT22;8843;48.838;9.324;2023-02-04T12:12:52;7.90;99.90
17452;DHT22;8843;48.838;9.324;2023-02-04T12:15:29;7.90;99.90
17452;DHT22;8843;48.838;9.324;2023-02-04T12:18:02;7.90;99.90
17452;DHT22;8843;48.838;9.324;2023-02-04T12:20:29;7.90;99.90
17452;DHT22;8843;48.838;9.324;2023-02-04T12:22:56;7.90;99.90
17452;DHT22;8843;48.838;9.324;2023-02-04T12:25:23;7.90;99.90
17452;DHT22;8843;48.838;9.324;2023-02-04T12:27:51;7.90;99.90
17452;DHT22;8843;48.838;9.324;2023-02-04T12:30:19;7.90;99.90
17452;DHT22;8843;48.838;9.324;2023-02-04T12:32:47;7.80;99.90
17452;DHT22;8843;48.838;9.324;2023-02-04T12:35:14;7.80;99.90
17452;DHT22;8843;48.838;9.324;2023-02-04T12:37:42;7.80;99.90
17452;DHT22;8843;48.838;9.324;2023-02-04T12:40:13;7.80;99.90
17452;DHT22;8843;48.838;9.324;2023-02-04T12:42:40;7.80;99.90
17452;DHT22;8843;48.838;9.324;2023-02-04T12:45:08;8.40;99.90
17452;DHT22;8843;48.838;9.324;2023-02-04T12:47:35;8.30;99.90
17452;DHT22;8843;48.838;9.324;2023-02-04T12:50:04;8.30;99.90
17452;DHT22;8843;48.838;9.324;2023-02-04T12:52:32;8.10;99.90
17452;DHT22;8843;48.838;9.324;2023-02-04T12:55:01;8.10;99.90
17452;DHT22;8843;48.838;9.324;2023-02-04T12:57:29;8.10;99.90
17452;DHT22;8843;48.838;9.324;2023-02-04T12:59:56;8.10;99.90
17452;DHT22;8843;48.838;9.324;2023-02-04T13:02:24;8.10;99.90
17452;DHT22;8843;48.838;9.324;2023-02-04T13:04:51;8.10;99.90
17452;DHT22;8843;48.838;9.324;2023-02-04T13:07:19;8.00;99.90
17452;DHT22;8843;48.838;9.324;2023-02-04T13:09:47;8.10;99.90
17452;DHT22;8843;48.838;9.324;2023-02-04T13:12:14;8.10;99.90
17452;DHT22;8843;48.838;9.324;2023-02-04T13:14:42;8.10;99.90
17452;DHT22;8843;48.838;9.324;2023-02-04T13:17:09;8.00;99.90
17452;DHT22;8843;48.838;9.324;2023-02-04T13:19:36;8.10;99.90
17452;DHT22;8843;48.838;9.324;2023-02-04T13:22:03;8.10;99.90
17452;DHT22;8843;48.838;9.324;2023-02-04T13:24:31;8.10;99.90
17452;DHT22;8843;48.838;9.324;2023-02-04T13:26:58;8.10;99.90
17452;DHT22;8843;48.838;9.324;2023-02-04T13:29:25;8.20;99.90
17452;DHT22;8843;48.838;9.324;2023-02-04T13:31:52;8.20;99.90
17452;DHT22;8843;48.838;9.324;2023-02-04T13:34:18;8.20;99.90
17452;DHT22;8843;48.838;9.324;2023-02-04T13:36:45;8.90;99.90
17452;DHT22;8843;48.838;9.324;2023-02-04T13:39:13;9.90;99.90
17452;DHT22;8843;48.838;9.324;2023-02-04T13:41:41;9.40;99.90
17452;DHT22;8843;48.838;9.324;2023-02-04T13:44:08;8.90;99.90
17452;DHT22;8843;48.838;9.324;2023-02-04T13:46:35;8.50;99.90
17452;DHT22;8843;48.838;9.324;2023-02-04T13:49:02;8.80;99.90
17452;DHT22;8843;48.838;9.324;2023-02-04T13:51:28;9.00;99.90
17452;DHT22;8843;48.838;9.324;2023-02-04T13:53:55;9.30;99.90
17452;DHT22;8843;48.838;9.324;2023-02-04T13:56:22;9.70;99.90
17452;DHT22;8843;48.838;9.324;2023-02-04T13:58:51;10.50;99.90
17452;DHT22;8843;48.838;9.324;2023-02-04T14:01:18;10.60;95.20
17452;DHT22;8843;48.838;9.324;2023-02-04T14:03:45;10.20;98.50
17452;DHT22;8843;48.838;9.324;2023-02-04T14:06:12;9.60;99.90
17452;DHT22;8843;48.838;9.324;2023-02-04T14:08:39;9.20;99.90
17452;DHT22;8843;48.838;9.324;2023-02-04T14:11:06;9.00;99.90
17452;DHT22;8843;48.838;9.324;2023-02-04T14:13:33;8.80;99.90
17452;DHT22;8843;48.838;9.324;2023-02-04T14:16:01;8.70;99.90
17452;DHT22;8843;48.838;9.324;2023-02-04T14:18:28;8.70;99.90
17452;DHT22;8843;48.838;9.324;2023-02-04T14:20:55;8.60;99.90
17452;DHT22;8843;48.838;9.324;2023-02-04T14:23:22;8.50;99.90
17452;DHT22;8843;48.838;9.324;2023-02-04T14:25:49;8.50;99.90
17452;DHT22;8843;48.838;9.324;2023-02-04T14:28:16;8.50;99.90
17452;DHT22;8843;48.838;9.324;2023-02-04T14:30:43;8.70;99.90
17452;DHT22;8843;48.838;9.324;2023-02-04T14:33:12;8.70;99.90
17452;DHT22;8843;48.838;9.324;2023-02-04T14:35:40;8.60;99.90
17452;DHT22;8843;48.838;9.324;2023-02-04T14:38:07;9.40;99.90
17452;DHT22;8843;48.838;9.324;2023-02-04T14:40:35;10.30;99.90
17452;DHT22;8843;48.838;9.324;2023-02-04T14:43:02;10.00;98.30
17452;DHT22;8843;48.838;9.324;2023-02-04T14:45:29;9.40;99.50
17452;DHT22;8843;48.838;9.324;2023-02-04T14:47:56;9.80;99.90
17452;DHT22;8843;48.838;9.324;2023-02-04T14:50:26;9.40;99.80
17452;DHT22;8843;48.838;9.324;2023-02-04T14:52:54;9.10;99.70
17452;DHT22;8843;48.838;9.324;2023-02-04T14:55:22;8.90;99.70
17452;DHT22;8843;48.838;9.324;2023-02-04T14:57:49;8.80;99.80
17452;DHT22;8843;48.838;9.324;2023-02-04T15:00:17;8.70;99.90
17452;DHT22;8843;48.838;9.324;2023-02-04T15:02:44;8.70;99.80
17452;DHT22;8843;48.838;9.324;2023-02-04T15:05:12;8.70;99.90
17452;DHT22;8843;48.838;9.324;2023-02-04T15:07:41;8.70;99.90
17452;DHT22;8843;48.838;9.324;2023-02-04T15:10:09;8.70;99.90
17452;DHT22;8843;48.838;9.324;2023-02-04T15:12:36;8.60;99.90
17452;DHT22;8843;48.838;9.324;2023-02-04T15:15:04;8.60;99.90
17452;DHT22;8843;48.838;9.324;2023-02-04T15:17:31;8.50;99.90
17452;DHT22;8843;48.838;9.324;2023-02-04T15:19:58;8.60;99.90
17452;DHT22;8843;48.838;9.324;2023-02-04T15:22:25;8.50;99.90
17452;DHT22;8843;48.838;9.324;2023-02-04T15:24:53;8.50;99.90
17452;DHT22;8843;48.838;9.324;2023-02-04T15:27:20;8.50;99.90
17452;DHT22;8843;48.838;9.324;2023-02-04T15:29:46;8.50;99.90
17452;DHT22;8843;48.838;9.324;2023-02-04T15:32:13;8.50;99.90
17452;DHT22;8843;48.838;9.324;2023-02-04T15:34:40;8.50;99.90
17452;DHT22;8843;48.838;9.324;2023-02-04T15:37:07;8.40;99.90
17452;DHT22;8843;48.838;9.324;2023-02-04T15:39:35;8.80;99.90
17452;DHT22;8843;48.838;9.324;2023-02-04T15:42:04;8.70;99.90
17452;DHT22;8843;48.838;9.324;2023-02-04T15:44:30;8.90;99.90
17452;DHT22;8843;48.838;9.324;2023-02-04T15:46:57;8.70;99.50
17452;DHT22;8843;48.838;9.324;2023-02-04T15:49:24;8.80;99.90
17452;DHT22;8843;48.838;9.324;2023-02-04T15:51:51;8.60;99.90
17452;DHT22;8843;48.838;9.324;2023-02-04T15:54:18;8.50;99.90
17452;DHT22;8843;48.838;9.324;2023-02-04T15:56:45;8.40;99.90
17452;DHT22;8843;48.838;9.324;2023-02-04T15:59:13;8.30;99.90
17452;DHT22;8843;48.838;9.324;2023-02-04T16:01:40;8.30;99.90
17452;DHT22;8843;48.838;9.324;2023-02-04T16:04:07;8.20;99.90
17452;DHT22;8843;48.838;9.324;2023-02-04T16:06:34;8.20;99.90